createdAt,value
2022-11-21T00:02:36.059Z,7.40
2022-11-21T00:05:21.554Z,7.40
2022-11-21T00:08:07.928Z,7.40
2022-11-21T00:10:53.587Z,7.40
2022-11-21T00:13:39.583Z,7.30
2022-11-21T00:16:24.959Z,7.20
2022-11-21T00:19:10.594Z,7.20
2022-11-21T00:21:56.373Z,7.20
2022-11-21T00:24:42.035Z,7.20
2022-11-21T00:27:27.843Z,7.10
2022-11-21T00:30:13.824Z,7.10
2022-11-21T00:32:59.804Z,7.10
2022-11-21T00:35:45.544Z,7.10
2022-11-21T00:38:31.139Z,7.10
2022-11-21T00:41:16.887Z,7.10
2022-11-21T00:44:02.358Z,7.10
2022-11-21T00:46:48.001Z,7.00
2022-11-21T00:49:33.841Z,7.00
2022-11-21T00:52:19.325Z,7.00
2022-11-21T00:55:05.577Z,6.90
2022-11-21T00:57:51.859Z,6.90
2022-11-21T01:00:37.540Z,6.90
2022-11-21T01:03:23.319Z,6.80
2022-11-21T01:06:10.044Z,6.80
2022-11-21T01:08:55.690Z,6.80
2022-11-21T01:11:41.496Z,6.70
2022-11-21T01:14:27.411Z,6.70
2022-11-21T01:17:13.537Z,6.70
2022-11-21T01:19:59.361Z,6.70
2022-11-21T01:22:44.718Z,6.70
2022-11-21T01:25:33.294Z,6.70
2022-11-21T01:28:18.875Z,6.60
2022-11-21T01:31:05.445Z,6.60
2022-11-21T01:33:52.380Z,6.60
2022-11-21T01:36:37.823Z,6.60
2022-11-21T01:39:23.516Z,6.60
2022-11-21T01:42:12.810Z,6.60
2022-11-21T01:44:58.665Z,6.60
2022-11-21T01:47:44.436Z,6.50
2022-11-21T01:50:29.989Z,6.50
2022-11-21T01:53:15.693Z,6.50
2022-11-21T01:56:03.933Z,6.50
2022-11-21T01:58:53.327Z,6.40
2022-11-21T02:01:39.593Z,6.50
2022-11-21T02:04:29.428Z,6.40
2022-11-21T02:07:18.023Z,6.40
2022-11-21T02:10:05.412Z,6.30
2022-11-21T02:12:58.733Z,6.30
2022-11-21T02:15:44.478Z,6.30
2022-11-21T02:18:30.031Z,6.30
2022-11-21T02:21:42.143Z,6.30
2022-11-21T02:24:38.358Z,6.20
2022-11-21T02:27:23.768Z,6.20
2022-11-21T02:30:11.834Z,6.20
2022-11-21T02:32:57.118Z,6.10
2022-11-21T02:35:43.012Z,6.00
2022-11-21T02:38:32.440Z,6.00
2022-11-21T02:41:26.487Z,6.00
2022-11-21T02:44:21.032Z,6.00
2022-11-21T02:47:06.462Z,6.00
2022-11-21T02:50:20.336Z,6.00
2022-11-21T02:53:08.274Z,5.90
2022-11-21T02:55:53.878Z,5.90
2022-11-21T02:58:39.499Z,5.90
2022-11-21T03:01:25.195Z,5.90
2022-11-21T03:04:11.043Z,5.80
2022-11-21T03:06:56.705Z,5.80
2022-11-21T03:09:42.428Z,5.80
2022-11-21T03:12:28.213Z,5.80
2022-11-21T03:15:15.690Z,5.80
2022-11-21T03:18:03.062Z,5.70
2022-11-21T03:20:48.933Z,5.70
2022-11-21T03:23:34.536Z,5.70
2022-11-21T03:26:20.429Z,5.70
2022-11-21T03:29:05.718Z,5.70
2022-11-21T03:31:51.581Z,5.70
2022-11-21T03:34:37.577Z,5.70
2022-11-21T03:37:22.996Z,5.70
2022-11-21T03:40:09.332Z,5.70
2022-11-21T03:42:54.882Z,5.80
2022-11-21T03:45:40.639Z,5.70
2022-11-21T03:48:26.506Z,5.70
2022-11-21T03:51:12.382Z,5.80
2022-11-21T03:53:58.541Z,5.70
2022-11-21T03:56:44.271Z,5.70
2022-11-21T03:59:29.872Z,5.70
2022-11-21T04:02:15.587Z,5.80
2022-11-21T04:05:00.784Z,5.70
2022-11-21T04:07:46.669Z,5.70
2022-11-21T04:10:32.492Z,5.80
2022-11-21T04:13:18.356Z,5.70
2022-11-21T04:16:04.076Z,5.70
2022-11-21T04:18:49.380Z,5.70
2022-11-21T04:21:35.010Z,5.70
2022-11-21T04:24:22.381Z,5.60
2022-11-21T04:27:08.053Z,5.60
2022-11-21T04:29:53.668Z,5.70
2022-11-21T04:32:39.528Z,5.50
2022-11-21T04:35:25.717Z,5.50
2022-11-21T04:38:12.394Z,5.40
2022-11-21T04:40:57.694Z,5.40
2022-11-21T04:43:43.366Z,5.30
2022-11-21T04:46:29.150Z,5.30
2022-11-21T04:49:14.998Z,5.30
2022-11-21T04:52:00.922Z,5.20
2022-11-21T04:54:46.394Z,5.20
2022-11-21T04:57:33.313Z,5.20
2022-11-21T05:00:23.969Z,5.10
2022-11-21T05:03:10.946Z,5.10
2022-11-21T05:05:56.441Z,5.10
2022-11-21T05:08:42.245Z,5.10
2022-11-21T05:11:46.483Z,5.10
2022-11-21T05:14:32.024Z,5.10
2022-11-21T05:17:17.635Z,5.10
2022-11-21T05:20:04.340Z,4.90
2022-11-21T05:22:53.085Z,4.90
2022-11-21T05:25:39.057Z,4.80
2022-11-21T05:28:24.662Z,4.90
2022-11-21T05:31:10.201Z,4.90
2022-11-21T05:33:55.963Z,4.80
2022-11-21T05:36:41.342Z,4.80
2022-11-21T05:39:27.598Z,4.80
2022-11-21T05:42:13.188Z,4.70
2022-11-21T05:44:58.765Z,4.70
2022-11-21T05:47:44.611Z,4.70
2022-11-21T05:50:30.239Z,4.70
2022-11-21T05:53:16.794Z,4.70
2022-11-21T05:56:14.058Z,4.60
2022-11-21T05:58:59.677Z,4.60
2022-11-21T06:02:03.909Z,4.60
2022-11-21T06:04:49.310Z,4.60
2022-11-21T06:07:35.018Z,4.60
2022-11-21T06:10:20.839Z,4.60
2022-11-21T06:13:22.107Z,4.70
2022-11-21T06:16:16.186Z,4.60
2022-11-21T06:19:03.810Z,4.60
2022-11-21T06:21:49.986Z,4.60
2022-11-21T06:24:36.802Z,4.60
2022-11-21T06:27:22.481Z,4.60
2022-11-21T06:30:08.626Z,4.60
2022-11-21T06:32:54.284Z,4.60
2022-11-21T06:35:39.952Z,4.60
2022-11-21T06:38:25.544Z,4.50
2022-11-21T06:41:15.731Z,4.40
2022-11-21T06:44:01.857Z,4.50
2022-11-21T06:46:51.116Z,4.50
2022-11-21T06:49:37.576Z,4.60
2022-11-21T06:52:22.945Z,4.60
2022-11-21T06:55:10.219Z,4.60
2022-11-21T06:57:58.996Z,4.60
2022-11-21T07:00:44.753Z,4.60
2022-11-21T07:03:30.310Z,4.70
2022-11-21T07:06:16.016Z,4.80
2022-11-21T07:12:25.590Z,4.90
2022-11-21T07:15:11.824Z,4.90
2022-11-21T07:17:58.541Z,5.00
2022-11-21T07:20:44.476Z,5.00
2022-11-21T07:23:31.884Z,5.10
2022-11-21T07:26:17.831Z,5.00
2022-11-21T07:29:03.330Z,5.70
2022-11-21T07:31:48.980Z,6.80
2022-11-21T07:34:34.997Z,7.10
2022-11-21T07:37:20.959Z,7.10
2022-11-21T07:40:07.230Z,7.30
2022-11-21T07:42:53.187Z,7.40
2022-11-21T07:45:38.878Z,7.50
2022-11-21T07:48:24.336Z,7.50
2022-11-21T07:51:10.229Z,7.40
2022-11-21T07:53:55.600Z,7.40
2022-11-21T07:56:41.930Z,7.40
2022-11-21T07:59:28.288Z,7.60
2022-11-21T08:02:20.574Z,7.60
2022-11-21T08:05:06.560Z,7.60
2022-11-21T08:07:52.570Z,7.70
2022-11-21T08:10:40.058Z,7.70
2022-11-21T08:13:25.660Z,7.70
2022-11-21T08:16:11.233Z,7.80
2022-11-21T08:18:57.093Z,7.90
2022-11-21T08:21:42.712Z,8.00
2022-11-21T08:24:28.695Z,8.00
2022-11-21T08:27:14.997Z,8.20
2022-11-21T08:30:00.906Z,8.30
2022-11-21T08:32:46.922Z,8.30
2022-11-21T08:35:32.794Z,8.50
2022-11-21T08:38:18.448Z,8.70
2022-11-21T08:41:22.463Z,8.80
2022-11-21T08:44:13.630Z,8.80
2022-11-21T08:47:00.710Z,8.90
2022-11-21T08:49:46.341Z,9.00
2022-11-21T08:52:32.273Z,9.00
2022-11-21T08:55:17.759Z,9.10
2022-11-21T08:58:03.342Z,9.10
2022-11-21T09:00:49.262Z,9.20
2022-11-21T09:03:35.405Z,9.20
2022-11-21T09:06:20.908Z,9.20
2022-11-21T09:09:07.621Z,9.30
2022-11-21T09:11:53.356Z,9.40
2022-11-21T09:14:57.624Z,9.50
2022-11-21T09:18:01.725Z,9.50
2022-11-21T09:20:47.605Z,9.60
2022-11-21T09:23:33.709Z,9.50
2022-11-21T09:26:19.356Z,9.50
2022-11-21T09:29:04.940Z,9.60
2022-11-21T09:31:50.418Z,9.60
2022-11-21T09:34:36.319Z,9.80
2022-11-21T09:37:21.956Z,9.80
2022-11-21T09:40:10.454Z,9.90
2022-11-21T09:43:36.048Z,10.00
2022-11-21T09:46:27.605Z,10.00
2022-11-21T09:49:14.616Z,10.10
2022-11-21T09:52:01.495Z,10.00
2022-11-21T09:54:53.037Z,10.00
2022-11-21T09:57:38.815Z,9.80
2022-11-21T10:00:26.020Z,9.90
2022-11-21T10:03:16.710Z,9.90
2022-11-21T10:06:17.753Z,10.10
2022-11-21T10:09:27.784Z,10.00
2022-11-21T10:12:36.908Z,10.00
2022-11-21T10:15:41.037Z,10.10
2022-11-21T10:18:38.423Z,10.10
2022-11-21T10:21:24.481Z,10.20
2022-11-21T10:24:38.343Z,10.20
2022-11-21T10:27:43.448Z,10.30
2022-11-21T10:30:29.897Z,10.20
2022-11-21T10:33:26.516Z,10.20
2022-11-21T10:36:25.844Z,10.30
2022-11-21T10:39:38.167Z,10.20
2022-11-21T10:42:35.968Z,10.30
2022-11-21T10:45:22.992Z,10.30
2022-11-21T10:48:08.986Z,10.40
2022-11-21T10:51:13.106Z,10.50
2022-11-21T10:54:29.896Z,10.60
2022-11-21T10:57:20.587Z,10.70
2022-11-21T11:00:12.610Z,10.80
2022-11-21T11:03:01.959Z,10.90
2022-11-21T11:05:57.164Z,11.00
2022-11-21T11:08:52.697Z,11.10
2022-11-21T11:11:38.719Z,11.10
2022-11-21T11:14:32.999Z,11.20
2022-11-21T11:17:28.319Z,11.30
2022-11-21T11:20:41.276Z,11.30
2022-11-21T11:23:28.177Z,11.30
2022-11-21T11:26:24.428Z,11.50
2022-11-21T11:29:32.266Z,11.50
2022-11-21T11:32:21.639Z,11.60
2022-11-21T11:35:13.692Z,11.50
2022-11-21T11:38:03.832Z,11.50
2022-11-21T11:40:49.271Z,11.50
2022-11-21T11:44:05.637Z,11.50
2022-11-21T11:47:21.548Z,11.50
2022-11-21T11:50:24.953Z,11.40
2022-11-21T11:53:27.461Z,11.50
2022-11-21T11:56:16.878Z,11.60
2022-11-21T11:59:20.554Z,11.60
2022-11-21T12:02:18.036Z,11.70
2022-11-21T12:05:13.164Z,11.70
2022-11-21T12:12:08.700Z,11.60
2022-11-21T12:15:48.938Z,11.60
2022-11-21T12:18:47.923Z,11.60
2022-11-21T12:21:33.882Z,11.50
2022-11-21T12:24:22.345Z,11.60
2022-11-21T12:27:29.685Z,11.60
2022-11-21T12:30:47.122Z,11.60
2022-11-21T12:33:36.966Z,11.60
2022-11-21T12:36:35.615Z,11.60
2022-11-21T12:39:39.485Z,11.60
2022-11-21T12:42:50.769Z,11.60
2022-11-21T12:45:47.236Z,11.60
2022-11-21T12:49:09.460Z,11.60
2022-11-21T12:52:32.335Z,11.60
2022-11-21T12:55:37.857Z,11.60
2022-11-21T12:58:39.705Z,11.60
2022-11-21T13:02:08.948Z,11.50
2022-11-21T13:04:58.288Z,11.50
2022-11-21T13:07:44.263Z,11.60
2022-11-21T13:10:31.221Z,11.60
2022-11-21T13:13:31.216Z,11.60
2022-11-21T13:16:36.880Z,11.70
2022-11-21T13:19:52.170Z,11.60
2022-11-21T13:22:37.974Z,11.60
2022-11-21T13:25:33.243Z,11.60
2022-11-21T13:28:18.741Z,11.50
2022-11-21T13:31:31.841Z,11.40
2022-11-21T13:34:46.849Z,11.40
2022-11-21T13:38:02.118Z,11.30
2022-11-21T13:41:06.974Z,11.40
2022-11-21T13:44:31.653Z,11.30
2022-11-21T13:47:26.704Z,11.30
2022-11-21T13:50:34.485Z,11.40
2022-11-21T13:53:58.589Z,11.30
2022-11-21T13:56:56.675Z,11.20
2022-11-21T13:59:48.801Z,11.10
2022-11-21T14:02:52.789Z,11.10
2022-11-21T14:05:47.927Z,11.10
2022-11-21T14:08:34.063Z,11.10
2022-11-21T14:11:22.429Z,11.00
2022-11-21T14:14:10.260Z,11.00
2022-11-21T14:17:02.924Z,11.00
2022-11-21T14:19:49.720Z,11.00
2022-11-21T14:22:51.968Z,10.90
2022-11-21T14:25:40.572Z,10.90
2022-11-21T14:28:27.216Z,11.00
2022-11-21T14:31:13.791Z,10.90
2022-11-21T14:33:59.411Z,10.90
2022-11-21T14:36:45.237Z,10.90
2022-11-21T14:39:44.157Z,10.90
2022-11-21T14:42:37.613Z,10.90
2022-11-21T14:45:24.310Z,10.90
2022-11-21T14:48:12.884Z,10.90
2022-11-21T14:51:01.798Z,10.80
2022-11-21T14:53:49.418Z,10.90
2022-11-21T14:56:35.329Z,10.80
2022-11-21T14:59:38.595Z,10.90
2022-11-21T15:02:27.112Z,10.90
2022-11-21T15:05:29.018Z,10.80
2022-11-21T15:08:53.764Z,10.80
2022-11-21T15:11:38.807Z,10.80
2022-11-21T15:14:36.561Z,10.70
2022-11-21T15:17:27.012Z,10.70
2022-11-21T15:20:12.541Z,10.60
2022-11-21T15:23:00.915Z,10.60
2022-11-21T15:25:47.715Z,10.50
2022-11-21T15:28:33.572Z,10.50
2022-11-21T15:31:20.822Z,10.50
2022-11-21T15:34:33.861Z,10.50
2022-11-21T15:37:17.723Z,10.40
2022-11-21T15:40:06.425Z,10.40
2022-11-21T15:42:52.000Z,10.40
2022-11-21T15:45:39.299Z,10.40
2022-11-21T15:48:26.627Z,10.30
2022-11-21T15:51:12.182Z,10.30
2022-11-21T15:53:58.149Z,10.30
2022-11-21T15:56:44.151Z,10.30
2022-11-21T15:59:29.920Z,10.30
2022-11-21T16:02:15.929Z,10.20
2022-11-21T16:05:01.463Z,10.20
2022-11-21T16:07:48.561Z,10.20
2022-11-21T16:10:36.147Z,10.20
2022-11-21T16:13:21.774Z,10.10
2022-11-21T16:16:07.476Z,10.10
2022-11-21T16:18:53.371Z,10.00
2022-11-21T16:21:39.254Z,10.00
2022-11-21T16:24:24.971Z,10.00
2022-11-21T16:27:10.574Z,10.00
2022-11-21T16:29:56.588Z,10.00
2022-11-21T16:32:42.057Z,10.00
2022-11-21T16:35:27.662Z,10.00
2022-11-21T16:38:13.440Z,9.90
2022-11-21T16:41:00.872Z,10.00
2022-11-21T16:43:49.823Z,10.00
2022-11-21T16:46:40.767Z,10.00
2022-11-21T16:49:26.810Z,10.00
2022-11-21T16:52:14.017Z,10.00
2022-11-21T16:55:01.709Z,10.00
2022-11-21T16:57:47.176Z,10.10
2022-11-21T17:00:33.282Z,10.00
2022-11-21T17:03:19.323Z,10.00
2022-11-21T17:06:05.654Z,10.00
2022-11-21T17:08:51.166Z,10.00
2022-11-21T17:11:37.430Z,10.00
2022-11-21T17:14:22.945Z,10.10
2022-11-21T17:17:08.412Z,10.10
2022-11-21T17:19:54.620Z,10.00
2022-11-21T17:22:40.336Z,10.10
2022-11-21T17:25:25.950Z,10.10
2022-11-21T17:28:11.679Z,10.10
2022-11-21T17:30:57.345Z,10.10
2022-11-21T17:33:44.018Z,10.10
2022-11-21T17:36:34.275Z,10.10
2022-11-21T17:39:21.349Z,10.10
2022-11-21T17:42:08.480Z,10.10
2022-11-21T17:44:54.634Z,10.10
2022-11-21T17:47:41.085Z,10.10
2022-11-21T17:50:26.703Z,10.10
2022-11-21T17:53:12.390Z,10.10
2022-11-21T17:55:59.753Z,10.10
2022-11-21T17:58:47.006Z,10.20
2022-11-21T18:01:34.208Z,10.20
2022-11-21T18:04:19.886Z,10.10
2022-11-21T18:07:08.895Z,10.10
2022-11-21T18:09:54.724Z,10.10
2022-11-21T18:12:42.345Z,10.10
2022-11-21T18:15:28.833Z,10.20
2022-11-21T18:18:14.450Z,10.10
2022-11-21T18:21:10.388Z,10.10
2022-11-21T18:23:59.582Z,10.10
2022-11-21T18:26:46.960Z,10.20
2022-11-21T18:29:36.770Z,10.10
2022-11-21T18:32:24.187Z,10.10
2022-11-21T18:35:09.945Z,10.10
2022-11-21T18:38:02.796Z,10.00
2022-11-21T18:40:48.719Z,10.00
2022-11-21T18:43:34.452Z,9.90
2022-11-21T18:46:21.736Z,9.80
2022-11-21T18:49:08.477Z,9.90
2022-11-21T18:51:54.573Z,9.80
2022-11-21T18:54:40.322Z,9.90
2022-11-21T18:57:25.660Z,9.80
2022-11-21T19:00:12.229Z,9.80
2022-11-21T19:02:57.828Z,9.60
2022-11-21T19:05:43.302Z,9.50
2022-11-21T19:08:29.296Z,9.50
2022-11-21T19:11:16.142Z,9.40
2022-11-21T19:14:01.718Z,9.40
2022-11-21T19:16:47.463Z,9.40
2022-11-21T19:19:35.063Z,9.50
2022-11-21T19:22:21.335Z,9.40
2022-11-21T19:25:07.680Z,9.30
2022-11-21T19:27:53.185Z,9.20
2022-11-21T19:30:40.524Z,9.20
2022-11-21T19:33:28.909Z,9.20
2022-11-21T19:36:19.883Z,9.20
2022-11-21T19:39:07.755Z,9.10
2022-11-21T19:41:53.582Z,9.20
2022-11-21T19:44:39.472Z,9.10
2022-11-21T19:47:24.962Z,9.10
2022-11-21T19:50:10.544Z,9.10
2022-11-21T19:52:56.122Z,9.10
2022-11-21T19:55:41.750Z,9.00
2022-11-21T19:58:27.564Z,9.00
2022-11-21T20:01:14.413Z,8.90
2022-11-21T20:04:02.965Z,8.90
2022-11-21T20:06:50.008Z,8.90
2022-11-21T20:09:36.570Z,8.80
2022-11-21T20:12:22.252Z,8.80
2022-11-21T20:15:08.480Z,8.80
2022-11-21T20:17:54.347Z,8.80
2022-11-21T20:20:40.138Z,8.80
2022-11-21T20:23:25.748Z,8.80
2022-11-21T20:26:12.897Z,8.80
2022-11-21T20:28:59.107Z,8.80
2022-11-21T20:31:44.911Z,8.90
2022-11-21T20:34:30.783Z,8.90
2022-11-21T20:37:16.434Z,8.80
2022-11-21T20:40:02.268Z,8.90
2022-11-21T20:42:47.882Z,8.90
2022-11-21T20:46:08.004Z,8.90
2022-11-21T20:48:41.749Z,8.90
2022-11-21T20:54:33.425Z,9.00
2022-11-21T20:57:21.201Z,8.90
2022-11-21T21:00:07.862Z,8.90
2022-11-21T21:02:53.715Z,8.90
2022-11-21T21:05:39.586Z,8.80
2022-11-21T21:08:25.652Z,8.80
2022-11-21T21:11:44.510Z,8.80
2022-11-21T21:14:23.573Z,8.80
2022-11-21T21:17:09.316Z,8.70
2022-11-21T21:19:55.048Z,8.70
2022-11-21T21:22:41.611Z,8.60
2022-11-21T21:25:28.125Z,8.70
2022-11-21T21:28:13.837Z,8.70
2022-11-21T21:30:59.816Z,8.70
2022-11-21T21:33:45.837Z,8.70
2022-11-21T21:36:32.193Z,8.70
2022-11-21T21:39:18.106Z,8.70
2022-11-21T21:42:03.606Z,8.70
2022-11-21T21:44:49.211Z,8.70
2022-11-21T21:47:35.133Z,8.70
2022-11-21T21:50:20.963Z,8.70
2022-11-21T21:53:06.680Z,8.60
2022-11-21T21:55:52.629Z,8.60
2022-11-21T21:58:40.308Z,8.60
2022-11-21T22:01:31.040Z,8.60
2022-11-21T22:04:17.192Z,8.60
2022-11-21T22:07:05.565Z,8.60
2022-11-21T22:09:51.022Z,8.50
2022-11-21T22:12:39.968Z,8.50
2022-11-21T22:15:29.270Z,8.50
2022-11-21T22:18:14.860Z,8.50
2022-11-21T22:21:00.750Z,8.50
2022-11-21T22:24:09.726Z,8.50
2022-11-21T22:26:53.308Z,8.50
2022-11-21T22:29:38.724Z,8.50
2022-11-21T22:32:24.385Z,8.50
2022-11-21T22:35:10.150Z,8.60
2022-11-21T22:37:55.597Z,8.50
2022-11-21T22:40:40.941Z,8.60
2022-11-21T22:43:26.360Z,8.70
2022-11-21T22:46:13.031Z,8.60
2022-11-21T22:48:59.076Z,8.70
2022-11-21T22:51:45.096Z,8.70
2022-11-21T22:54:31.008Z,8.70
2022-11-21T22:57:17.106Z,8.60
2022-11-21T23:00:04.673Z,8.60
2022-11-21T23:02:50.452Z,8.50
2022-11-21T23:05:36.144Z,8.60
2022-11-21T23:08:21.866Z,8.60
2022-11-21T23:11:13.440Z,8.60
2022-11-21T23:13:59.120Z,8.60
2022-11-21T23:16:44.586Z,8.70
2022-11-21T23:19:30.410Z,8.70
2022-11-21T23:22:16.229Z,8.60
2022-11-21T23:25:01.791Z,8.60
2022-11-21T23:27:47.650Z,8.60
2022-11-21T23:30:33.489Z,8.60
2022-11-21T23:33:19.518Z,8.60
2022-11-21T23:36:05.863Z,8.60
2022-11-21T23:38:51.355Z,8.60
2022-11-21T23:41:37.242Z,8.70
2022-11-21T23:44:22.833Z,8.60
2022-11-21T23:47:08.553Z,8.60
2022-11-21T23:49:54.117Z,8.60
2022-11-21T23:52:39.674Z,8.50
2022-11-21T23:55:25.356Z,8.50
2022-11-21T23:58:11.839Z,8.50
